Kingmont, WV (26578)

7:27 PM EST on December 28, 2014 (GMT -0500)
Pleasant Valley Station | Change Station
CLOSE
Current Station
Personal Weather Station
Location: Fairmont, WV
Elevation: 1047 ft
Nearby Weather Stations

Elev 1047 ft 39.44 °N, 80.17 °W | Updated 3 minutes ago

Overcast
Overcast
37.9 °F
Feels Like 38 °F
N
2.0
Wind Variable Wind from WNW
Gusts 4.0 mph

Today
High -- | Low -- °F
--% Chance of Precip.
Yesterday
High -- | Low -- °F
Precip. -- in
7:40 AM 5:04 PM
First Quarter, 53% visible
Pressure 30.10 in
Visibility 3.0 miles
Clouds Mostly Cloudy 800 ft
Overcast 1100 ft
Windchill 38 °F
Dew Point 37 °F
Humidity 97%
Rainfall 0.18 in
Snow Depth Not available.
UV 0 out of 12
Pollen .10 out of 12
Air Quality Not available.
Flu Activity Not available.
METAR KCKB 282353Z 32006KT 3SM -RA BR BKN008 OVC011 03/03 A3010 RMK AO2 RAB12 CIG 004V010 SLP193 P0001 60007 T00330028 10056 20033 53014

More Conditions Fewer Conditions

Pressure 30.10 in
Visibility 3.0 miles
Clouds Mostly Cloudy 800 ft
Overcast 1100 ft
Windchill 38 °F
Dew Point 37 °F
Humidity 97%
Rainfall 0.18 in
Snow Depth Not available.
UV 0 out of 12
Pollen .10 out of 12
Air Quality Not available.
Flu Activity Not available.
METAR KCKB 282353Z 32006KT 3SM -RA BR BKN008 OVC011 03/03 A3010 RMK AO2 RAB12 CIG 004V010 SLP193 P0001 60007 T00330028 10056 20033 53014

More Conditions Fewer Conditions

10-Day Weather Forecast

Almanac

Astronomy

Dec. 28, 2014 Rise Set
Actual Time
Civil Twilight
Nautical Twilight
Astronomical Twilight
Moon
Length of Visible Light
Length of Day
Tomorrow will be .
, % of the Moon is Illuminated

Today's Extremes

State Highs State Lows

Community

WunderPhotos

Upload Photos

1,781,468 photos uploaded!

WunderBlogs® & News

Nearby

Air Quality

  Air Quality AQ Index Pollutant
Not available.

Snow Depth

Station Depth Elevation

Earthquake Activity

City Distance Mag. Time & Date
Minimum magnitude displayed is 2.5.

Coastal Water Temperatures

Place Temperature

Nearby Weather Stations